Time;durP1;ratioP1;P1;durP2;ratioP2;P2;SDS_P1;SDS_P2;PMS_P1;PMS_P2;Temp;Humidity;BMP_temperature;BMP_pressure;BME280_temperature;BME280_humidity;BME280_pressure;Samples;Min_cycle;Max_cycle;Signal;HPM_P1;HPM_P2
2021/08/11 00:01:56;;;;;;;17.08;11.52;;;;;;;21.43;74.90;99078.41;5052431;28;20506;-65
2021/08/11 00:04:21;;;;;;;19.23;12.57;;;;;;;21.41;74.99;99074.44;5052402;28;20111;-65
2021/08/11 00:06:47;;;;;;;16.95;11.77;;;;;;;21.38;74.95;99083.94;5052314;28;20048;-65
2021/08/11 00:09:13;;;;;;;19.83;12.48;;;;;;;21.34;75.06;99069.50;5052400;28;20075;-65
2021/08/11 00:11:38;;;;;;;18.70;11.88;;;;;;;21.29;75.33;99081.22;5052561;28;20041;-64
2021/08/11 00:14:04;;;;;;;19.13;11.80;;;;;;;21.26;75.47;99078.38;5052245;28;20052;-64
2021/08/11 00:16:30;;;;;;;20.00;12.15;;;;;;;21.23;75.57;99079.00;5052102;28;20506;-65
2021/08/11 00:18:57;;;;;;;18.13;12.05;;;;;;;21.20;75.65;99066.94;5034340;28;20041;-64
2021/08/11 00:21:23;;;;;;;18.70;11.75;;;;;;;21.18;75.53;99049.50;5052020;28;20143;-64
2021/08/11 00:23:49;;;;;;;17.58;11.05;;;;;;;21.16;75.42;99057.13;5052296;28;20124;-64
2021/08/11 00:26:14;;;;;;;13.55;11.55;;;;;;;21.11;75.65;99063.44;5051998;28;20045;-65
2021/08/11 00:28:40;;;;;;;18.08;11.70;;;;;;;21.07;75.72;99065.19;5051868;28;20048;-65
2021/08/11 00:31:06;;;;;;;15.70;11.52;;;;;;;21.00;76.18;99054.06;5051951;28;20037;-65
2021/08/11 00:33:33;;;;;;;15.95;11.57;;;;;;;21.00;76.19;99054.06;5033643;28;20529;-65
2021/08/11 00:35:59;;;;;;;14.00;10.93;;;;;;;20.95;76.14;99051.53;5051836;28;20036;-65
2021/08/11 00:38:25;;;;;;;15.65;11.05;;;;;;;20.93;76.34;99048.34;5051920;28;20124;-64
2021/08/11 00:40:59;;;;;;;19.25;11.80;;;;;;;20.90;76.30;99055.16;5050464;28;20055;-64
2021/08/11 00:43:24;;;;;;;19.80;11.80;;;;;;;20.85;76.63;99045.34;5033619;28;20439;-64
2021/08/11 00:45:51;;;;;;;18.70;10.98;;;;;;;20.81;77.10;99059.75;5050362;28;20037;-65
2021/08/11 00:48:17;;;;;;;19.80;12.07;;;;;;;20.80;77.01;99056.25;5050592;28;20061;-65
2021/08/11 00:50:43;;;;;;;15.90;11.48;;;;;;;20.78;77.15;99058.47;5050138;28;20406;-64
2021/08/11 00:53:13;;;;;;;16.08;11.30;;;;;;;20.76;77.31;99055.28;5050246;28;20049;-64
2021/08/11 00:55:40;;;;;;;14.88;12.02;;;;;;;20.73;77.57;99057.81;5050458;28;20127;-64
2021/08/11 00:58:10;;;;;;;13.50;10.85;;;;;;;20.68;77.66;99050.69;5049909;28;20520;-65
2021/08/11 01:00:48;;;;;;;15.95;11.35;;;;;;;20.65;77.71;99043.22;5049470;28;20491;-64
2021/08/11 01:03:19;;;;;;;15.45;11.00;;;;;;;20.63;78.08;99046.22;5049521;28;20453;-63
2021/08/11 01:05:47;;;;;;;14.13;11.02;;;;;;;20.60;78.08;99046.06;5050130;28;20506;-64
2021/08/11 01:08:13;;;;;;;16.10;11.77;;;;;;;20.55;77.94;99036.22;5050941;28;20415;-64
2021/08/11 01:10:40;;;;;;;17.17;11.23;;;;;;;20.60;78.19;99048.75;5050299;28;20128;-64
2021/08/11 01:13:10;;;;;;;13.57;11.00;;;;;;;20.57;78.39;99058.25;5033542;28;20083;-64
2021/08/11 01:15:37;;;;;;;14.50;10.73;;;;;;;20.55;78.53;99060.44;5050077;28;20052;-64
2021/08/11 01:18:03;;;;;;;14.98;11.15;;;;;;;20.55;78.64;99060.44;5049369;28;20068;-65
2021/08/11 01:20:30;;;;;;;14.32;11.75;;;;;;;20.58;78.57;99057.13;5049664;28;20060;-63
2021/08/11 01:23:00;;;;;;;15.15;11.18;;;;;;;20.58;78.68;99064.41;5033306;28;20068;-62
2021/08/11 01:25:32;;;;;;;13.60;11.00;;;;;;;20.57;78.72;99058.25;5049955;28;20139;-64
2021/08/11 01:28:36;;;;;;;15.88;11.52;;;;;;;20.54;78.65;99061.56;5049417;28;20041;-64
2021/08/11 01:31:12;;;;;;;14.23;11.40;;;;;;;20.53;78.75;99067.25;5049670;28;20119;-65
2021/08/11 01:33:52;;;;;;;15.20;10.77;;;;;;;20.50;78.95;99068.66;5049745;28;20049;-64
2021/08/11 01:36:33;;;;;;;14.93;11.43;;;;;;;20.47;79.03;99074.66;5033725;28;20067;-64
2021/08/11 01:39:30;;;;;;;13.98;11.23;;;;;;;20.43;79.23;99079.06;5049475;28;20048;-65
2021/08/11 01:42:01;;;;;;;13.35;10.70;;;;;;;20.42;79.18;99082.84;5049381;28;20128;-63
2021/08/11 01:44:35;;;;;;;14.23;11.18;;;;;;;20.36;79.35;99076.03;5049925;28;20065;-64
2021/08/11 01:47:04;;;;;;;13.27;11.52;;;;;;;20.36;79.47;99082.19;5016889;28;20090;-64
2021/08/11 01:49:30;;;;;;;14.20;11.68;;;;;;;20.34;79.66;99089.78;5033110;28;20502;-64
2021/08/11 01:51:57;;;;;;;14.07;12.40;;;;;;;20.31;79.83;99086.91;5033119;28;20045;-64
2021/08/11 01:54:24;;;;;;;14.05;11.48;;;;;;;20.29;80.06;99095.28;5049748;28;20087;-63
2021/08/11 01:56:50;;;;;;;14.18;11.63;;;;;;;20.28;80.08;99095.59;5033054;28;20441;-63
2021/08/11 01:59:17;;;;;;;15.00;12.15;;;;;;;20.26;80.17;99095.91;5033102;28;20051;-64
2021/08/11 02:01:44;;;;;;;16.30;12.25;;;;;;;20.26;80.17;99100.50;5032999;28;20037;-64
2021/08/11 02:04:12;;;;;;;16.73;11.65;;;;;;;20.25;80.39;99104.31;5049565;28;20076;-64
2021/08/11 02:06:38;;;;;;;15.30;11.65;;;;;;;20.26;80.32;99100.50;5032798;28;20041;-65
2021/08/11 02:09:10;;;;;;;16.30;12.02;;;;;;;20.26;80.30;99103.97;5033563;28;20495;-63
2021/08/11 02:11:38;;;;;;;16.42;12.27;;;;;;;20.27;80.42;99104.78;5032969;28;20079;-65
2021/08/11 02:14:08;;;;;;;15.45;12.48;;;;;;;20.28;80.44;99101.00;5034302;28;20041;-66
2021/08/11 02:16:35;;;;;;;;;;;;;;;20.27;80.31;99099.41;5053650;28;20048;-64
2021/08/11 02:19:01;;;;;;;14.98;11.48;;;;;;;20.27;80.33;99108.28;5036410;28;19921;-64
2021/08/11 02:21:27;;;;;;;14.68;11.77;;;;;;;20.27;80.38;99102.91;5053213;28;20143;-64
2021/08/11 02:23:54;;;;;;;18.50;12.15;;;;;;;20.26;80.39;99103.19;5052605;28;20449;-64
2021/08/11 02:26:31;;;;;;;14.40;11.82;;;;;;;20.25;79.97;99105.09;5020177;28;20075;-64
2021/08/11 02:29:02;;;;;;;14.80;12.23;;;;;;;20.25;79.71;99110.47;5052945;28;20138;-64
2021/08/11 02:31:33;;;;;;;14.30;10.50;;;;;;;20.25;79.45;99107.78;5052995;28;20049;-64
2021/08/11 02:34:24;;;;;;;12.95;11.18;;;;;;;20.28;79.41;99103.69;5052833;28;20051;-64
2021/08/11 02:36:56;;;;;;;12.98;10.65;;;;;;;20.28;79.30;99109.84;5035960;28;20067;-64
2021/08/11 02:39:27;;;;;;;13.88;11.18;;;;;;;20.29;79.27;99108.75;5052817;28;20481;-64
2021/08/11 02:41:58;;;;;;;15.90;11.30;;;;;;;20.30;79.53;99109.56;5036171;28;20171;-65
2021/08/11 02:44:34;;;;;;;13.82;11.05;;;;;;;20.29;79.59;99118.72;5052684;28;20045;-65
2021/08/11 02:47:01;;;;;;;17.42;11.68;;;;;;;20.30;79.48;99121.13;5052540;28;20180;-63
2021/08/11 02:49:32;;;;;;;13.23;11.82;;;;;;;20.30;79.60;99128.41;5052563;28;20049;-64
2021/08/11 02:52:03;;;;;;;14.68;11.18;;;;;;;20.30;79.34;99121.13;5019677;28;20087;-64
2021/08/11 02:54:31;;;;;;;12.95;10.75;;;;;;;20.30;79.45;99128.41;5036045;28;20071;-64
2021/08/11 02:56:56;;;;;;;14.18;11.73;;;;;;;20.32;79.49;99131.56;5052568;28;20041;-64
2021/08/11 02:59:24;;;;;;;13.65;10.93;;;;;;;20.32;79.24;99132.34;5052290;28;20049;-65
2021/08/11 03:01:51;;;;;;;13.73;10.95;;;;;;;20.34;79.38;99127.47;5052315;28;20088;-63
2021/08/11 03:04:17;;;;;;;16.85;13.63;;;;;;;20.34;79.40;99130.16;5035382;28;20159;-63
2021/08/11 03:06:44;;;;;;;19.98;14.57;;;;;;;20.34;79.35;99134.75;5052115;28;20049;-65
2021/08/11 03:09:10;;;;;;;17.20;14.30;;;;;;;20.32;79.43;99129.66;5018958;28;20438;-65
2021/08/11 03:11:36;;;;;;;17.48;14.13;;;;;;;20.33;79.80;99142.03;5052287;28;20036;-65
2021/08/11 03:14:03;;;;;;;19.60;14.18;;;;;;;20.35;79.49;99147.09;5035570;28;20080;-65
2021/08/11 03:16:30;;;;;;;17.02;13.82;;;;;;;20.29;79.90;99162.56;5052214;28;20060;-64
2021/08/11 03:18:57;;;;;;;17.50;13.70;;;;;;;20.26;80.12;99159.72;5052199;28;20048;-63
2021/08/11 03:21:23;;;;;;;18.30;13.05;;;;;;;20.19;80.28;99162.84;5035427;28;20061;-63
2021/08/11 03:23:49;;;;;;;21.20;14.70;;;;;;;20.16;80.66;99161.53;5051832;28;20049;-65
2021/08/11 03:26:17;;;;;;;16.25;13.25;;;;;;;20.14;80.82;99171.03;5051353;28;20515;-63
2021/08/11 03:28:43;;;;;;;20.77;17.35;;;;;;;20.13;81.21;99172.13;5051759;28;20049;-64
2021/08/11 03:31:08;;;;;;;23.00;19.17;;;;;;;20.11;81.35;99177.81;5051736;28;20040;-64
2021/08/11 03:33:37;;;;;;;18.98;16.45;;;;;;;20.10;81.66;99178.91;5051558;28;20045;-64
2021/08/11 03:36:03;;;;;;;22.65;18.98;;;;;;;20.13;81.66;99188.28;5051940;28;20037;-65
2021/08/11 03:38:29;;;;;;;22.27;18.70;;;;;;;20.12;82.10;99187.50;5051333;28;20047;-65
2021/08/11 03:40:55;;;;;;;21.67;18.27;;;;;;;20.12;81.79;99176.72;5051384;28;20124;-65
2021/08/11 03:43:21;;;;;;;23.55;19.70;;;;;;;20.11;81.42;99177.81;5051024;28;20040;-64
2021/08/11 03:45:47;;;;;;;24.05;19.42;;;;;;;20.14;81.42;99179.88;5051551;28;20052;-65
2021/08/11 03:48:13;;;;;;;21.52;18.00;;;;;;;20.17;81.28;99183.88;5051246;28;20033;-64
2021/08/11 03:50:42;;;;;;;24.70;18.48;;;;;;;20.18;81.32;99188.97;5051518;28;20143;-64
2021/08/11 03:53:09;;;;;;;21.30;16.90;;;;;;;20.21;81.54;99182.16;5051225;28;20131;-64
2021/08/11 03:55:36;;;;;;;18.63;15.60;;;;;;;20.23;81.47;99181.84;5051350;28;20149;-64
2021/08/11 03:58:04;;;;;;;24.48;15.95;;;;;;;20.24;81.50;99180.78;5018491;28;20041;-64
2021/08/11 04:00:30;;;;;;;20.73;15.77;;;;;;;20.27;81.96;99185.53;5051320;28;20098;-65
2021/08/11 04:02:56;;;;;;;21.52;16.38;;;;;;;20.26;81.80;99183.94;5050549;28;20037;-65
2021/08/11 04:05:21;;;;;;;22.48;17.13;;;;;;;20.30;82.37;99184.94;5052534;28;20041;-64
2021/08/11 04:07:47;;;;;;;27.10;19.40;;;;;;;20.30;82.10;99184.94;5052172;28;20052;-64
2021/08/11 04:10:13;;;;;;;28.45;22.13;;;;;;;20.35;82.22;99190.97;5051101;28;20522;-63
2021/08/11 04:12:38;;;;;;;27.60;23.52;;;;;;;20.34;82.60;99189.38;5052313;28;20558;-64
2021/08/11 04:15:05;;;;;;;28.00;21.52;;;;;;;20.36;82.67;99197.94;5052392;28;20053;-63
2021/08/11 04:17:31;;;;;;;25.58;19.83;;;;;;;20.40;82.70;99201.59;5051630;28;20090;-63
2021/08/11 04:19:56;;;;;;;24.23;19.50;;;;;;;20.42;82.51;99204.00;5052138;28;20115;-64
2021/08/11 04:22:22;;;;;;;23.92;17.58;;;;;;;20.46;82.21;99204.97;5051915;28;20047;-65
2021/08/11 04:24:47;;;;;;;27.58;18.17;;;;;;;20.47;82.41;99201.19;5050742;28;20049;-64
2021/08/11 04:27:13;;;;;;;23.27;17.45;;;;;;;20.49;82.53;99206.25;5052214;28;20049;-65
2021/08/11 04:29:39;;;;;;;24.85;18.17;;;;;;;20.48;82.76;99207.38;5052191;28;20037;-64
2021/08/11 04:32:05;;;;;;;24.63;19.02;;;;;;;20.45;82.98;99203.38;5052040;28;20068;-64
2021/08/11 04:34:30;;;;;;;23.35;19.40;;;;;;;20.43;83.30;99209.06;5052104;28;20036;-64
2021/08/11 04:36:56;;;;;;;25.58;19.75;;;;;;;20.44;83.02;99196.41;5051009;28;20044;-63
2021/08/11 04:39:22;;;;;;;26.08;19.70;;;;;;;20.46;83.16;99194.19;5051914;28;20080;-64
2021/08/11 04:41:48;;;;;;;24.50;19.88;;;;;;;20.53;83.45;99196.47;5050576;28;20068;-64
2021/08/11 04:44:14;;;;;;;24.27;20.02;;;;;;;20.58;84.06;99189.06;5051707;28;20453;-63
2021/08/11 04:46:41;;;;;;;26.70;18.98;;;;;;;20.50;82.86;99187.13;5051461;28;20072;-64
2021/08/11 04:49:07;;;;;;;25.92;20.10;;;;;;;20.52;84.57;99190.31;5050466;28;20044;-64
2021/08/11 04:51:33;;;;;;;27.30;20.90;;;;;;;20.57;83.85;99194.78;5051762;28;20063;-63
2021/08/11 04:53:59;;;;;;;26.38;19.50;;;;;;;20.63;84.28;99199.72;5051508;28;20056;-63
2021/08/11 04:56:24;;;;;;;25.08;19.55;;;;;;;20.68;83.68;99198.00;5051329;28;20059;-64
2021/08/11 04:58:50;;;;;;;22.55;18.90;;;;;;;20.67;82.55;99196.41;5051237;28;20131;-64
2021/08/11 05:01:15;;;;;;;24.55;18.83;;;;;;;20.61;83.22;99193.84;5051261;28;20621;-64
2021/08/11 05:03:41;;;;;;;26.80;19.30;;;;;;;20.55;83.24;99192.38;5050008;28;20056;-65
2021/08/11 05:06:08;;;;;;;27.80;19.95;;;;;;;20.52;83.46;99193.00;5051039;28;20083;-67
2021/08/11 05:08:37;;;;;;;22.83;17.90;;;;;;;20.55;83.67;99200.47;5050518;28;20071;-68
2021/08/11 05:11:03;;;;;;;25.02;17.52;;;;;;;20.56;82.99;99202.06;5049935;28;20040;-65
2021/08/11 05:13:28;;;;;;;27.75;18.20;;;;;;;20.58;82.89;99202.53;5051087;28;20040;-66
2021/08/11 05:15:54;;;;;;;28.05;20.08;;;;;;;20.57;83.15;99200.97;5049760;28;20045;-65
2021/08/11 05:18:20;;;;;;;32.42;22.48;;;;;;;20.57;83.91;99200.16;5051009;28;20051;-64
2021/08/11 05:20:46;;;;;;;29.48;21.45;;;;;;;20.58;83.91;99194.47;5050998;28;20072;-64
2021/08/11 05:23:12;;;;;;;27.13;20.50;;;;;;;20.58;83.80;99199.06;5050960;28;20071;-64
2021/08/11 05:25:37;;;;;;;29.48;19.48;;;;;;;20.61;83.65;99196.53;5051408;28;20052;-64
2021/08/11 05:28:03;;;;;;;26.33;19.35;;;;;;;20.68;83.92;99195.28;5050966;28;20041;-64
2021/08/11 05:30:29;;;;;;;21.50;17.23;;;;;;;20.71;82.56;99190.09;5051515;28;20478;-63
2021/08/11 05:32:55;;;;;;;24.20;17.02;;;;;;;20.71;81.87;99187.41;5046181;28;20037;-64
2021/08/11 05:35:21;;;;;;;22.17;17.10;;;;;;;20.70;81.83;99187.72;5047190;28;20099;-65
2021/08/11 05:37:48;;;;;;;26.00;17.73;;;;;;;20.72;82.29;99182.81;5044564;28;20041;-65
2021/08/11 05:40:16;;;;;;;25.75;19.17;;;;;;;20.75;81.70;99182.19;5048548;28;20053;-64
2021/08/11 05:42:42;;;;;;;25.98;19.48;;;;;;;20.81;81.86;99183.66;5049795;28;20383;-64
2021/08/11 05:45:08;;;;;;;32.17;20.83;;;;;;;20.83;81.53;99182.25;5048037;28;20155;-65
2021/08/11 05:47:34;;;;;;;29.95;18.90;;;;;;;20.83;80.72;99173.38;5048102;28;20055;-66
2021/08/11 05:50:00;;;;;;;26.73;19.10;;;;;;;20.85;80.85;99174.66;5051332;28;20049;-65
2021/08/11 05:52:25;;;;;;;29.33;19.33;;;;;;;20.91;81.87;99175.28;5050188;28;20037;-66
2021/08/11 05:54:52;;;;;;;29.65;19.02;;;;;;;20.89;82.09;99180.22;5051802;28;20102;-65
2021/08/11 05:57:18;;;;;;;30.70;19.60;;;;;;;20.95;81.86;99175.47;5052498;28;20048;-65
2021/08/11 05:59:44;;;;;;;26.70;18.60;;;;;;;20.96;81.80;99168.97;5051970;28;20048;-65
2021/08/11 06:02:09;;;;;;;41.83;20.60;;;;;;;21.01;81.92;99172.31;5052220;28;20048;-64
2021/08/11 06:04:41;;;;;;;27.05;20.13;;;;;;;21.02;82.36;99171.22;5051711;28;20052;-64
2021/08/11 06:07:07;;;;;;;26.80;19.83;;;;;;;21.01;82.38;99169.63;5050439;28;20563;-66
2021/08/11 06:09:33;;;;;;;29.52;19.45;;;;;;;21.04;82.32;99176.31;5051625;28;20053;-65
2021/08/11 06:11:58;;;;;;;30.85;20.42;;;;;;;21.05;82.28;99169.78;5050983;28;20037;-65
2021/08/11 06:14:24;;;;;;;27.20;18.98;;;;;;;21.09;82.23;99160.78;5051053;28;20053;-65
2021/08/11 06:16:50;;;;;;;27.90;20.48;;;;;;;21.13;81.95;99154.78;5051722;28;20052;-65
2021/08/11 06:19:16;;;;;;;31.13;20.40;;;;;;;21.18;81.80;99160.81;5052162;28;20052;-65
2021/08/11 06:21:41;;;;;;;31.17;20.80;;;;;;;21.24;81.89;99161.47;5049490;28;20056;-65
2021/08/11 06:24:07;;;;;;;26.40;20.48;;;;;;;21.25;81.40;99157.66;5051418;28;20502;-67
2021/08/11 06:26:34;;;;;;;31.02;20.13;;;;;;;21.30;81.39;99160.22;5053372;28;20045;-66
2021/08/11 06:29:00;;;;;;;30.45;19.88;;;;;;;21.33;80.87;99156.88;5051424;28;20158;-66
2021/08/11 06:31:26;;;;;;;29.48;21.20;;;;;;;21.36;80.83;99158.16;5053035;28;20119;-66
2021/08/11 06:33:52;;;;;;;24.60;19.35;;;;;;;21.35;80.63;99157.34;5052220;28;20041;-65
2021/08/11 06:36:19;;;;;;;26.35;19.42;;;;;;;21.38;80.99;99155.97;5047126;28;20033;-66
2021/08/11 06:38:44;;;;;;;26.38;18.08;;;;;;;21.45;78.99;99159.00;5040586;28;20080;-65
2021/08/11 06:41:15;;;;;;;25.80;17.00;;;;;;;21.49;78.74;99147.25;5040243;28;20075;-66
2021/08/11 06:43:45;;;;;;;26.70;18.70;;;;;;;21.53;78.84;99156.31;5035363;28;20517;-67
2021/08/11 06:46:13;;;;;;;26.95;18.08;;;;;;;21.60;78.91;99152.34;5039685;28;20044;-66
2021/08/11 06:48:39;;;;;;;27.52;19.30;;;;;;;21.65;79.47;99153.00;5050559;28;20087;-67
2021/08/11 06:51:06;;;;;;;26.75;18.42;;;;;;;21.71;78.83;99156.34;5052732;28;20090;-67
2021/08/11 06:53:32;;;;;;;28.63;18.88;;;;;;;21.72;79.20;99158.69;5051786;28;20037;-68
2021/08/11 06:55:58;;;;;;;26.17;19.55;;;;;;;21.72;78.13;99155.22;5052247;28;20141;-67
2021/08/11 06:58:24;;;;;;;26.35;19.88;;;;;;;21.75;78.40;99158.06;5051600;28;20045;-67
2021/08/11 07:00:51;;;;;;;24.17;19.40;;;;;;;21.76;78.40;99153.47;5052005;28;20067;-67
2021/08/11 07:03:19;;;;;;;28.90;21.67;;;;;;;21.80;78.36;99149.03;5052342;28;20845;-67
2021/08/11 07:05:45;;;;;;;33.17;22.48;;;;;;;21.86;78.21;99157.75;5051692;28;20370;-66
2021/08/11 07:08:11;;;;;;;29.88;23.42;;;;;;;21.89;78.36;99157.91;5050696;28;20533;-65
2021/08/11 07:10:37;;;;;;;27.38;21.60;;;;;;;21.91;78.26;99152.19;5050407;28;20656;-65
2021/08/11 07:13:03;;;;;;;27.63;20.17;;;;;;;21.86;78.33;99149.66;5051604;28;20060;-64
2021/08/11 07:15:28;;;;;;;28.25;20.52;;;;;;;21.86;78.60;99152.38;5051116;28;20047;-64
2021/08/11 07:17:55;;;;;;;24.35;20.05;;;;;;;21.94;78.20;99146.16;5051231;28;20095;-66
2021/08/11 07:20:25;;;;;;;26.17;20.00;;;;;;;21.99;77.94;99151.41;5050823;28;20071;-65
2021/08/11 07:22:52;;;;;;;27.95;19.65;;;;;;;22.02;78.03;99147.28;5052195;28;20045;-67
2021/08/11 07:25:19;;;;;;;23.90;18.77;;;;;;;22.05;76.71;99149.34;5052214;28;20041;-65
2021/08/11 07:27:45;;;;;;;24.65;17.58;;;;;;;22.06;76.13;99150.91;5033272;28;20048;-65
2021/08/11 07:30:11;;;;;;;24.45;18.77;;;;;;;22.13;76.11;99153.94;5017915;28;20387;-66
2021/08/11 07:32:37;;;;;;;23.90;18.17;;;;;;;22.16;76.24;99154.09;5034299;28;20044;-65
2021/08/11 07:35:03;;;;;;;31.40;18.65;;;;;;;22.16;76.36;99150.59;5051532;28;20434;-66
2021/08/11 07:37:29;;;;;;;24.85;19.13;;;;;;;22.16;76.39;99145.97;5051763;28;20527;-67
2021/08/11 07:39:55;;;;;;;22.40;17.83;;;;;;;22.26;76.03;99155.69;5052126;28;20053;-66
2021/08/11 07:42:21;;;;;;;27.40;19.30;;;;;;;22.26;76.34;99154.88;5051410;28;20029;-66
2021/08/11 07:44:47;;;;;;;27.60;18.45;;;;;;;22.28;75.66;99153.47;5051193;28;20055;-65
2021/08/11 07:47:12;;;;;;;23.80;18.33;;;;;;;22.29;76.07;99151.53;5049992;28;20484;-67
2021/08/11 07:49:38;;;;;;;29.20;19.17;;;;;;;22.25;76.92;99145.22;5050511;28;20041;-66
2021/08/11 07:52:04;;;;;;;24.02;18.23;;;;;;;22.30;76.27;99153.16;5051653;28;20045;-66
2021/08/11 07:54:30;;;;;;;26.35;18.05;;;;;;;22.29;75.51;99144.22;5050685;28;20490;-66
2021/08/11 07:56:56;;;;;;;25.13;17.83;;;;;;;22.33;74.91;99152.50;5051301;28;20086;-65
2021/08/11 07:59:22;;;;;;;23.40;19.23;;;;;;;22.30;75.29;99150.44;5051120;28;20045;-66
2021/08/11 08:01:47;;;;;;;22.05;16.15;;;;;;;22.33;74.30;99150.59;5050071;28;20036;-67
2021/08/11 08:04:14;;;;;;;22.33;14.23;;;;;;;22.27;73.43;99143.78;5048962;28;20055;-66
2021/08/11 08:06:40;;;;;;;49.40;18.58;;;;;;;22.36;74.44;99143.75;5050747;28;20041;-65
2021/08/11 08:09:05;;;;;;;27.90;15.45;;;;;;;22.37;73.88;99148.81;5050653;28;20049;-65
2021/08/11 08:11:31;;;;;;;38.58;16.35;;;;;;;22.37;73.54;99148.81;5049986;28;20032;-66
2021/08/11 08:13:57;;;;;;;69.47;18.63;;;;;;;22.34;72.72;99145.97;5049737;28;20489;-66
2021/08/11 08:16:23;;;;;;;26.23;14.20;;;;;;;22.33;72.56;99145.19;5050896;28;20540;-66
2021/08/11 08:18:49;;;;;;;29.67;17.48;;;;;;;22.30;74.15;99147.75;5050393;28;20048;-66
2021/08/11 08:21:15;;;;;;;22.95;16.00;;;;;;;22.22;73.85;99142.03;5032132;28;20556;-65
2021/08/11 08:23:41;;;;;;;28.15;17.58;;;;;;;22.25;74.52;99142.50;5050342;28;20044;-66
2021/08/11 08:26:07;;;;;;;40.20;19.95;;;;;;;22.23;74.82;99135.50;5049800;28;20037;-67
2021/08/11 08:28:32;;;;;;;31.92;16.00;;;;;;;22.27;73.70;99143.00;5050365;28;20064;-66
2021/08/11 08:30:58;;;;;;;28.52;17.23;;;;;;;22.33;74.52;99145.19;5050555;28;20043;-66
2021/08/11 08:33:24;;;;;;;24.05;15.98;;;;;;;22.33;74.12;99145.19;5049712;28;20556;-66
2021/08/11 08:35:50;;;;;;;23.55;16.00;;;;;;;22.33;74.04;99142.50;5050691;28;20037;-66
2021/08/11 08:38:18;;;;;;;19.73;14.57;;;;;;;22.33;73.48;99144.41;5049997;28;20090;-66
2021/08/11 08:40:46;;;;;;;21.60;14.07;;;;;;;22.37;73.60;99146.13;5050326;28;20049;-65
2021/08/11 08:43:12;;;;;;;24.05;15.68;;;;;;;22.43;73.69;99144.84;5050220;28;20041;-65
2021/08/11 08:45:40;;;;;;;22.13;14.55;;;;;;;22.53;73.71;99146.41;5050858;28;20048;-66
2021/08/11 08:48:06;;;;;;;24.35;13.85;;;;;;;22.56;72.41;99143.06;5047099;28;20041;-66
2021/08/11 08:50:33;;;;;;;19.67;13.07;;;;;;;22.62;72.18;99138.28;5050848;28;20147;-67
2021/08/11 08:53:01;;;;;;;21.42;13.02;;;;;;;22.58;72.11;99148.13;5049968;28;20063;-66
2021/08/11 08:55:26;;;;;;;16.58;12.82;;;;;;;22.58;71.88;99158.94;5049626;28;20044;-66
2021/08/11 08:57:53;;;;;;;16.80;11.55;;;;;;;22.58;70.11;99145.44;5049822;28;20056;-66
2021/08/11 09:00:19;;;;;;;20.63;12.23;;;;;;;22.52;71.34;99144.03;5050688;28;20045;-66
2021/08/11 09:02:45;;;;;;;24.30;11.98;;;;;;;22.47;72.06;99142.28;5048255;28;20401;-65
2021/08/11 09:05:11;;;;;;;26.20;12.45;;;;;;;22.53;71.21;99140.19;5029902;28;20052;-65
2021/08/11 09:07:43;;;;;;;71.28;16.95;;;;;;;22.59;70.29;99139.72;5028687;28;20495;-64
2021/08/11 09:10:29;;;;;;;48.35;14.25;;;;;;;22.71;71.04;99147.16;5029981;28;20133;-65
2021/08/11 09:12:58;;;;;;;81.80;18.08;;;;;;;22.71;70.96;99143.63;5030328;28;20137;-67
2021/08/11 09:15:29;;;;;;;67.82;17.63;;;;;;;22.73;70.90;99144.91;5029840;28;20045;-67
2021/08/11 09:17:59;;;;;;;44.50;13.93;;;;;;;22.84;70.71;99145.34;5042097;28;20151;-66
2021/08/11 09:20:26;;;;;;;88.65;17.40;;;;;;;22.90;70.13;99149.44;5049172;28;20056;-66
2021/08/11 09:22:54;;;;;;;48.42;14.13;;;;;;;22.87;69.46;99148.19;5049158;28;20084;-66
2021/08/11 09:25:20;;;;;;;27.52;12.32;;;;;;;22.77;70.93;99148.56;5048226;28;20049;-67
2021/08/11 09:27:46;;;;;;;34.08;12.90;;;;;;;22.59;70.31;99141.59;5049765;28;20601;-67
2021/08/11 09:30:15;;;;;;;22.38;11.88;;;;;;;22.41;71.48;99143.56;5048496;28;20037;-65
2021/08/11 09:32:56;;;;;;;22.65;12.90;;;;;;;22.22;72.64;99141.25;5031690;28;20041;-66
2021/08/11 09:35:39;;;;;;;18.92;12.32;;;;;;;22.11;72.78;99140.75;5050396;28;20577;-66
2021/08/11 09:38:10;;;;;;;25.60;13.30;;;;;;;22.05;73.21;99133.13;5047742;28;20049;-66
2021/08/11 09:40:36;;;;;;;;;;;;;;;22.06;74.08;99137.41;5048909;28;20443;-66
2021/08/11 09:43:03;;;;;;;25.77;13.18;;;;;;;22.06;73.06;99134.72;5049942;28;19920;-66
2021/08/11 09:45:48;;;;;;;30.05;13.07;;;;;;;22.06;72.52;99143.63;5034632;28;20057;-67
2021/08/11 09:48:16;;;;;;;28.02;13.70;;;;;;;21.95;73.13;99139.66;5028403;28;20095;-67
2021/08/11 09:50:55;;;;;;;76.55;20.20;;;;;;;21.87;73.81;99141.25;5030443;28;20045;-66
2021/08/11 09:53:25;;;;;;;62.83;16.77;;;;;;;21.92;73.75;99135.69;5027785;28;20041;-66
2021/08/11 09:56:00;;;;;;;20.65;13.52;;;;;;;21.82;74.36;99136.00;5029687;28;20045;-66
2021/08/11 09:58:26;;;;;;;18.00;12.70;;;;;;;21.78;74.85;99135.84;5028759;28;20533;-66
2021/08/11 10:00:52;;;;;;;18.90;12.68;;;;;;;21.75;75.09;99139.19;5029630;28;20038;-66
2021/08/11 10:03:19;;;;;;;20.40;13.73;;;;;;;21.73;75.56;99135.22;5027401;28;20045;-66
2021/08/11 10:05:44;;;;;;;19.42;12.50;;;;;;;21.70;75.22;99122.34;5029454;28;20053;-67
2021/08/11 10:08:10;;;;;;;22.35;14.23;;;;;;;21.61;75.57;99130.44;5030934;28;20049;-66
2021/08/11 10:10:47;;;;;;;22.15;12.57;;;;;;;21.54;76.27;99130.13;5030078;28;20048;-67
2021/08/11 10:13:17;;;;;;;19.02;12.38;;;;;;;21.50;76.38;99132.69;5028257;28;20037;-67
2021/08/11 10:15:44;;;;;;;22.40;12.80;;;;;;;21.49;76.14;99132.97;5029783;28;20061;-66
2021/08/11 10:18:11;;;;;;;17.85;13.48;;;;;;;21.40;77.12;99134.88;5027016;28;20418;-65
2021/08/11 10:20:37;;;;;;;20.05;13.25;;;;;;;21.38;77.92;99139.78;5028061;28;20524;-65
2021/08/11 10:23:04;;;;;;;21.23;14.60;;;;;;;21.35;77.49;99153.84;5027911;28;20484;-65
2021/08/11 10:25:30;;;;;;;18.92;14.23;;;;;;;21.32;78.37;99150.72;5029134;28;20478;-66
2021/08/11 10:27:56;;;;;;;19.33;14.90;;;;;;;21.33;79.06;99154.19;5027802;28;20049;-66
2021/08/11 10:30:22;;;;;;;20.45;13.85;;;;;;;21.19;77.89;99157.00;5028782;28;20049;-66
2021/08/11 10:32:48;;;;;;;18.80;14.05;;;;;;;21.08;79.47;99151.09;5027547;28;20068;-66
2021/08/11 10:35:14;;;;;;;16.50;10.77;;;;;;;20.98;77.11;99139.81;5029712;28;20399;-66
2021/08/11 10:37:41;;;;;;;16.90;12.68;;;;;;;20.87;77.62;99142.78;5031242;28;20049;-66
2021/08/11 10:40:08;;;;;;;18.35;12.73;;;;;;;20.81;77.35;99148.63;5031900;28;20064;-67
2021/08/11 10:42:33;;;;;;;16.73;12.73;;;;;;;20.80;77.93;99134.38;5033036;28;20040;-65
2021/08/11 10:45:00;;;;;;;18.98;14.35;;;;;;;20.79;79.15;99137.38;5030618;28;20473;-66
2021/08/11 10:47:30;;;;;;;19.17;14.25;;;;;;;20.85;79.59;99139.63;5029676;28;20506;-66
2021/08/11 10:49:58;;;;;;;19.52;14.02;;;;;;;20.86;79.62;99143.13;5031665;28;20514;-66
2021/08/11 10:52:24;;;;;;;18.25;14.32;;;;;;;20.85;78.99;99142.31;5029810;28;20053;-66
2021/08/11 10:54:54;;;;;;;17.10;12.75;;;;;;;20.81;78.72;99137.84;5030733;28;20045;-65
2021/08/11 10:57:34;;;;;;;23.30;15.00;;;;;;;20.75;79.66;99142.59;5051147;28;20045;-68
2021/08/11 11:00:08;;;;;;;17.75;13.25;;;;;;;20.73;79.23;99133.22;5052410;28;20049;-66
2021/08/11 11:02:40;;;;;;;20.48;13.73;;;;;;;20.70;79.22;99131.16;5049726;28;20047;-67
2021/08/11 11:05:19;;;;;;;21.83;15.25;;;;;;;20.66;80.09;99130.97;5051977;28;20083;-67
2021/08/11 11:08:09;;;;;;;20.75;14.88;;;;;;;20.67;80.02;99126.38;5052666;28;20090;-67
2021/08/11 11:10:35;;;;;;;20.63;15.45;;;;;;;20.69;80.37;99127.66;5050081;28;20426;-66
2021/08/11 11:13:26;;;;;;;19.75;14.90;;;;;;;20.69;80.58;99122.28;5049659;28;20102;-67
2021/08/11 11:15:52;;;;;;;;;;;;;;;20.67;80.40;99118.31;5053266;28;20140;-65
2021/08/11 11:18:23;;;;;;;22.98;15.77;;;;;;;20.63;81.15;99116.22;5050431;28;19960;-66
2021/08/11 11:21:10;;;;;;;21.67;16.70;;;;;;;20.61;81.43;99123.03;5050756;28;20056;-68